Flight Track Log - Related Links

Times and Time Zones

All times are in EDT time to prevent confusion due to time zone crossing. See the QXE321 flight status page for this flight to view local times or setup timezone preferences in your user account.

Time Position Orientation Groundspeed Altitude Reporting Facility
EDT Latitude Longitude Course Direction KTS MPH feet Rate Location/Type
Thu 09:15:44 AM 47.4331 -111.4283 274° West 182 209 5,800  Level Salt Lake Center
Thu 09:20:50 AM 47.4581 -111.9722 272° West 279 321 14,400 1,582 Climbing Salt Lake Center
Thu 09:21:52 AM 47.4614 -112.0933 272° West 289 333 15,500 1,122 Climbing Salt Lake Center
Thu 09:22:53 AM 47.4644 -112.2178 269° West 298 343 16,700 1,131 Climbing Salt Lake Center
Thu 09:23:54 AM 47.4628 -112.3444 272° West 306 352 17,800 1,073 Climbing Salt Lake Center
Thu 09:24:56 AM 47.4656 -112.4711 271° West 309 356 18,900 976 Climbing Salt Lake Center
Thu 09:25:57 AM 47.4669 -112.5989 271° West 310 357 19,800 1,024 Climbing Salt Lake Center
Thu 09:26:59 AM 47.4681 -112.7267 270° West 311 358 21,000 1,073 Climbing Salt Lake Center
Thu 09:28:00 AM 47.4686 -112.8522 271° West 309 356 22,000 984 Climbing Salt Lake Center
Thu 09:29:01 AM 47.4694 -112.9786 271° West 303 349 23,000 878 Climbing Salt Lake Center
Thu 09:30:03 AM 47.4708 -113.1028 272° West 302 348 23,800 488 Climbing Salt Lake Center
Thu 09:31:04 AM 47.4736 -113.2564 269° West 309 356 24,000 98 Climbing Salt Lake Center
Thu 09:32:06 AM 47.4719 -113.4022 270° West 343 395 24,000  Level Salt Lake Center
Thu 09:33:08 AM 47.4719 -113.5400 270° West 346 398 24,000  Level Salt Lake Center
Thu 09:34:09 AM 47.4725 -113.6872 270° West 355 409 24,000  Level Salt Lake Center
Thu 09:35:11 AM 47.4728 -113.8328 270° West 355 409 24,000  Level Salt Lake Center
Thu 09:36:12 AM 47.4725 -113.9783 269° West 354 407 24,000  Level Salt Lake Center
Thu 09:37:14 AM 47.4711 -114.1208 270° West 350 403 24,000  Level Salt Lake Center
Thu 09:38:16 AM 47.4708 -114.2669 270° West 352 405 24,000  Level Salt Lake Center
Thu 09:39:17 AM 47.4706 -114.4131 269° West 354 407 24,000  Level Salt Lake Center
Thu 09:40:19 AM 47.4692 -114.5914 269° West 359 413 24,000  Level Salt Lake Center
Thu 09:41:21 AM 47.4678 -114.7417 269° West 362 417 24,000  Level Salt Lake Center
Thu 09:42:30 AM 47.4667 -114.8936 269° West 364 419 24,000  Level Seattle Center
Thu 09:43:24 AM 47.4647 -115.0433 269° West 366 421 24,000 -52 Level Salt Lake Center
Thu 09:44:26 AM 47.4633 -115.1944 268° West 367 422 23,900  Descending Salt Lake Center
Thu 09:45:27 AM 47.4606 -115.3436 269° West 366 421 24,000 47 Climbing Salt Lake Center
Thu 09:46:34 AM 47.4575 -115.5236 270° West 366 421 24,000  Level Seattle Center
Thu 09:47:35 AM 47.4569 -115.6750 276° West 367 422 24,000  Level Seattle Center
Thu 09:48:36 AM 47.4683 -115.8258 275° West 368 423 24,000  Level Seattle Center
Thu 09:49:37 AM 47.4775 -115.9753 275° West 368 423 24,000  Level Seattle Center
Thu 09:50:38 AM 47.4867 -116.1256 274° West 369 425 24,000  Level Seattle Center
Thu 09:51:39 AM 47.4942 -116.2764 275° West 369 425 24,000  Level Seattle Center
Thu 09:52:40 AM 47.5025 -116.4294 275° West 371 427 24,000  Level Seattle Center
Thu 09:53:41 AM 47.5114 -116.5808 275° West 371 427 24,000  Level Seattle Center
Thu 09:54:42 AM 47.5203 -116.7308 274° West 369 425 24,000  Level Seattle Center
Thu 09:55:43 AM 47.5281 -116.8828 275° West 370 426 24,000  Level Seattle Center
Thu 09:56:44 AM 47.5364 -117.0325 274° West 369 425 24,000  Level Seattle Center
Thu 09:57:45 AM 47.5439 -117.1939 274° West 366 421 24,000  Level Seattle Center
Thu 09:58:46 AM 47.5511 -117.3433 276° West 364 419 24,000  Level Seattle Center
Thu 10:01:50 AM 47.5797 -117.7900 279° West 363 418 24,000  Level Seattle Center
Thu 10:02:51 AM 47.5981 -117.9672 277° West 366 421 24,000  Level Seattle Center
Thu 10:03:52 AM 47.6100 -118.1150 278° West 363 418 24,000  Level Seattle Center
Thu 10:04:53 AM 47.6236 -118.2619 278° West 362 417 24,000  Level Seattle Center
Thu 10:05:54 AM 47.6375 -118.4100 278° West 362 417 24,000  Level Seattle Center
Thu 10:06:55 AM 47.6506 -118.5569 277° West 362 417 24,000  Level Seattle Center
Thu 10:07:57 AM 47.6628 -118.7042 278° West 361 415 24,000  Level Seattle Center
Thu 10:08:58 AM 47.6761 -118.8517 277° West 362 417 24,000  Level Seattle Center
Thu 10:09:59 AM 47.6883 -118.9972 277° West 359 413 24,000  Level Seattle Center
Thu 10:11:00 AM 47.7008 -119.1411 277° West 355 409 24,000  Level Seattle Center
Thu 10:12:01 AM 47.7125 -119.2842 277° West 353 406 24,000  Level Seattle Center
Thu 10:13:02 AM 47.7236 -119.4267 277° West 350 403 24,000  Level Seattle Center
Thu 10:14:03 AM 47.7369 -119.5978 277° West 349 402 24,000  Level Seattle Center
Thu 10:15:04 AM 47.7489 -119.7428 277° West 353 406 24,000  Level Seattle Center
Thu 10:16:06 AM 47.7608 -119.8889 276° West 356 410 24,000  Level Seattle Center
Thu 10:17:07 AM 47.7714 -120.0347 276° West 356 410 24,000  Level Seattle Center
Thu 10:18:08 AM 47.7817 -120.1806 277° West 357 411 24,000 -197 Level Seattle Center
Thu 10:19:09 AM 47.7933 -120.3281 276° West 360 414 23,600 -689 Descending Seattle Center
Thu 10:20:10 AM 47.8042 -120.4764 297° West 361 415 22,600 -984 Descending Seattle Center
Thu 10:21:11 AM 47.8489 -120.6064 294° West 362 417 21,600 -984 Descending Seattle Center
Thu 10:22:12 AM 47.8894 -120.7436 295° West 362 417 20,600 -1,033 Descending Seattle Center
Thu 10:23:13 AM 47.9381 -120.9000 294° West 366 421 19,500 -976 Descending Seattle Center
Thu 10:24:15 AM 47.9797 -121.0381 284° West 369 425 18,600 -927 Descending Seattle Center
Thu 10:25:16 AM 48.0033 -121.1803 273° West 366 421 17,600 -1,043 Descending Seattle Center
Thu 10:25:47 AM 48.0058 -121.2642 278° West 357 411 17,000 -984 Descending Seattle Center
Thu 10:26:17 AM 48.0119 -121.3256 265° West 357 411 16,600 -1,164 Descending Seattle Center
Thu 10:26:54 AM 48.0056 -121.4342 236° Southwest 356 410 15,700 -1,732 Descending Seattle Center
Thu 10:27:54 AM 47.9544 -121.5467 237° Southwest 335 386 13,800 -1,636 Descending Seattle Center
Thu 10:28:55 AM 47.9050 -121.6581 231° Southwest 321 369 12,400 -934 Descending Seattle Center
Thu 10:29:56 AM 47.8519 -121.7544 220° Southwest 300 345 11,900 -793 Descending Seattle Center
Thu 10:30:56 AM 47.7894 -121.8328 250° West 294 338 10,800 -1,140 Descending Seattle Center
Thu 10:31:57 AM 47.7636 -121.9400 259° West 270 311 9,600 -1,426 Descending Seattle Center
Thu 10:32:58 AM 47.7500 -122.0433 260° West 261 300 7,900 -1,869 Descending Seattle Center
Thu 10:33:59 AM 47.7369 -122.1497 259° West 260 299 5,800 -1,359 Descending Seattle Center
Thu 10:35:06 AM 47.7214 -122.2639 214° Southwest 248 285 5,000 -563 Descending Seattle Center
Thu 10:36:07 AM 47.6719 -122.3142 181° South 222 255 4,600 -875 Descending Seattle Center
Thu 10:37:30 AM 47.5903 -122.3172 180° South 204 235 2,900 -1,140 Descending Seattle Center
Thu 10:38:08 AM 47.5592 -122.3175 182° South 190 219 2,300 -757 Descending Seattle Center
Thu 10:39:21 AM 47.5131 -122.3197 180° South 121 139 1,500 -656 Descending Seattle Center
Thu 10:40:16 AM 47.4842 -122.3194 178° South 117 135 900 -493 Descending Seattle Center
Thu 10:41:35 AM 47.4483 -122.3175 178° South 115 132 400 -380 Descending Seattle Center

Login

Don't have an account? Register now (free) for customized features, flight alerts, and more!